Time;durP1;ratioP1;P1;durP2;ratioP2;P2;SDS_P1;SDS_P2;PMS_P1;PMS_P2;Temp;Humidity;BMP_temperature;BMP_pressure;BME280_temperature;BME280_humidity;BME280_pressure;Samples;Min_cycle;Max_cycle;Signal;HPM_P1;HPM_P2
2022/05/17 00:00:59;;;;;;;9.55;2.45;;;13.30;99.90;;;;;;5021010;28;20041;-91
2022/05/17 00:03:24;;;;;;;6.88;2.42;;;13.30;99.90;;;;;;5021002;28;20048;-88
2022/05/17 00:05:50;;;;;;;8.07;2.25;;;13.20;99.90;;;;;;5021081;28;20010;-88
2022/05/17 00:08:17;;;;;;;6.90;2.28;;;13.20;99.90;;;;;;5021065;28;20030;-87
2022/05/17 00:10:44;;;;;;;9.52;2.20;;;13.10;99.90;;;;;;5021176;28;20093;-89
2022/05/17 00:13:11;;;;;;;9.18;3.05;;;13.10;99.90;;;;;;5020758;28;20049;-86
2022/05/17 00:15:40;;;;;;;6.53;2.42;;;13.00;99.90;;;;;;5020801;28;20085;-87
2022/05/17 00:18:05;;;;;;;9.75;2.83;;;13.00;99.90;;;;;;5020570;28;20014;-87
2022/05/17 00:20:32;;;;;;;10.50;2.97;;;13.00;99.90;;;;;;5020634;28;20097;-89
2022/05/17 00:22:59;;;;;;;8.13;2.50;;;12.90;99.90;;;;;;5020444;28;20041;-88
2022/05/17 00:25:25;;;;;;;13.10;2.80;;;12.90;99.90;;;;;;5020754;28;20029;-87
2022/05/17 00:27:52;;;;;;;6.82;2.72;;;12.90;99.90;;;;;;5020496;28;20026;-87
2022/05/17 00:30:18;;;;;;;10.32;3.08;;;12.80;99.90;;;;;;5020424;28;20098;-86
2022/05/17 00:32:43;;;;;;;6.32;2.22;;;12.80;99.90;;;;;;5020566;28;20022;-87
2022/05/17 00:35:09;;;;;;;8.73;2.60;;;12.70;99.90;;;;;;5020635;28;20038;-88
2022/05/17 00:37:36;;;;;;;7.18;2.60;;;12.70;99.90;;;;;;5020710;28;20090;-87
2022/05/17 00:40:04;;;;;;;9.27;2.67;;;12.60;99.90;;;;;;5020734;28;20014;-87
2022/05/17 00:42:30;;;;;;;11.18;2.60;;;12.60;99.90;;;;;;5020501;28;20037;-90
2022/05/17 00:44:55;;;;;;;10.05;2.60;;;12.50;99.90;;;;;;5020616;28;20021;-88
2022/05/17 00:47:24;;;;;;;11.25;2.58;;;12.50;99.90;;;;;;5020430;28;20014;-90
2022/05/17 00:50:02;;;;;;;12.32;2.47;;;12.50;99.90;;;;;;5020498;28;20014;-87
2022/05/17 00:52:40;;;;;;;9.82;2.53;;;12.40;99.90;;;;;;5020560;28;20018;-87
2022/05/17 00:55:21;;;;;;;13.75;3.35;;;12.40;99.90;;;;;;5020003;28;20051;-94
2022/05/17 00:57:56;;;;;;;7.20;3.00;;;12.40;99.90;;;;;;5017675;28;20021;-90
2022/05/17 01:00:24;;;;;;;5.63;2.65;;;12.30;99.90;;;;;;5020096;28;20018;-90
2022/05/17 01:02:54;;;;;;;6.15;2.70;;;12.30;99.90;;;;;;5040476;28;20060;-87
2022/05/17 01:05:21;;;;;;;5.33;2.40;;;12.20;99.90;;;;;;5023765;28;20017;-87
2022/05/17 01:07:52;;;;;;;7.68;2.75;;;12.10;99.90;;;;;;5023609;28;20056;-88
2022/05/17 01:10:18;;;;;;;15.80;3.13;;;12.10;99.90;;;;;;5023583;28;20044;-87
2022/05/17 01:14:57;;;;;;;7.75;2.40;;;12.10;99.90;;;;;;5023287;28;20022;-87
2022/05/17 01:15:30;;;;;;;12.30;2.53;;;12.00;99.90;;;;;;5040404;28;20040;-87
2022/05/17 01:17:55;;;;;;;6.65;2.45;;;12.00;99.90;;;;;;5023384;28;20199;-87
2022/05/17 01:20:21;;;;;;;6.18;2.10;;;12.00;99.90;;;;;;5023260;28;20149;-86
2022/05/17 01:22:50;;;;;;;9.32;1.95;;;12.00;99.90;;;;;;5023299;28;20030;-87
2022/05/17 01:25:15;;;;;;;8.05;2.55;;;12.00;99.90;;;;;;5023210;28;20022;-87
2022/05/17 01:28:07;;;;;;;6.22;2.35;;;11.90;99.90;;;;;;5023104;28;20056;-86
2022/05/17 01:30:33;;;;;;;10.93;2.63;;;11.90;99.90;;;;;;5033498;28;20049;-88
2022/05/17 01:32:59;;;;;;;8.10;2.40;;;11.80;99.90;;;;;;5023119;28;20014;-88
2022/05/17 01:35:25;;;;;;;13.32;2.17;;;11.80;99.90;;;;;;5040344;28;20014;-90
2022/05/17 01:37:56;;;;;;;8.48;3.15;;;11.80;99.90;;;;;;5023217;28;20018;-89
2022/05/17 01:40:26;;;;;;;11.02;2.50;;;11.70;99.90;;;;;;5022352;28;20034;-88
2022/05/17 01:42:52;;;;;;;9.70;2.05;;;11.70;99.90;;;;;;5022103;28;20069;-91
2022/05/17 01:45:18;;;;;;;14.27;2.80;;;11.60;99.90;;;;;;5022792;28;20076;-89
2022/05/17 01:47:43;;;;;;;5.15;2.08;;;11.60;99.90;;;;;;5022820;28;20056;-89
2022/05/17 01:50:09;;;;;;;15.30;2.25;;;11.60;99.90;;;;;;5022929;28;20014;-87
2022/05/17 01:52:35;;;;;;;7.70;2.42;;;11.50;99.90;;;;;;5022887;28;20018;-88
2022/05/17 01:55:01;;;;;;;10.57;2.53;;;11.50;99.90;;;;;;5039793;28;20020;-87
2022/05/17 01:57:27;;;;;;;9.90;3.28;;;11.50;99.90;;;;;;5022664;28;20018;-86
2022/05/17 01:59:53;;;;;;;3.63;2.15;;;11.40;99.90;;;;;;5022740;28;20081;-87
2022/05/17 02:02:18;;;;;;;7.78;2.58;;;11.40;99.90;;;;;;5022418;28;20018;-86
2022/05/17 02:04:44;;;;;;;7.43;2.40;;;11.30;99.90;;;;;;5022430;28;20014;-87
2022/05/17 02:07:11;;;;;;;6.50;2.40;;;11.30;99.90;;;;;;5022363;28;20022;-87
2022/05/17 02:09:37;;;;;;;6.13;2.33;;;11.20;99.90;;;;;;5022328;28;20029;-87
2022/05/17 02:12:03;;;;;;;5.57;2.50;;;11.20;99.90;;;;;;5021870;28;20018;-88
2022/05/17 02:14:29;;;;;;;13.77;2.60;;;11.20;99.90;;;;;;5022319;28;20093;-87
2022/05/17 02:16:56;;;;;;;9.70;2.90;;;11.20;99.90;;;;;;5022332;28;20034;-87
2022/05/17 02:19:23;;;;;;;11.57;2.50;;;11.20;99.90;;;;;;5006147;28;20056;-88
2022/05/17 02:21:48;;;;;;;7.68;2.53;;;11.20;99.90;;;;;;5022119;28;20047;-87
2022/05/17 02:24:14;;;;;;;9.93;2.33;;;11.10;99.90;;;;;;5022470;28;20017;-87
2022/05/17 02:26:40;;;;;;;14.27;2.97;;;11.10;99.90;;;;;;5022789;28;20078;-87
2022/05/17 02:29:06;;;;;;;9.00;2.40;;;11.00;99.90;;;;;;5022082;28;20053;-87
2022/05/17 02:31:31;;;;;;;7.97;2.50;;;11.00;99.90;;;;;;5022062;28;20101;-87
2022/05/17 02:33:57;;;;;;;9.25;2.90;;;10.90;99.90;;;;;;5022081;28;20030;-90
2022/05/17 02:36:23;;;;;;;8.90;2.80;;;10.90;99.90;;;;;;5022338;28;20019;-90
2022/05/17 02:38:49;;;;;;;6.25;2.20;;;10.80;99.90;;;;;;5022052;28;20018;-91
2022/05/17 02:41:18;;;;;;;7.40;2.42;;;10.80;99.90;;;;;;5021877;28;20018;-91
2022/05/17 02:43:44;;;;;;;10.57;2.60;;;10.80;99.90;;;;;;5021813;28;20049;-90
2022/05/17 02:46:10;;;;;;;12.15;2.60;;;10.70;99.90;;;;;;5021843;28;20114;-90
2022/05/17 02:48:36;;;;;;;11.93;2.53;;;10.70;99.90;;;;;;5021868;28;20061;-90
2022/05/17 02:51:13;;;;;;;11.38;2.70;;;10.70;99.90;;;;;;5021927;28;20010;-91
2022/05/17 02:53:39;;;;;;;7.55;2.38;;;10.60;99.90;;;;;;5013254;28;20030;-95
2022/05/17 02:56:05;;;;;;;12.00;2.30;;;10.60;99.90;;;;;;5012232;28;20032;-96
2022/05/17 02:58:31;;;;;;;6.65;1.98;;;10.60;99.90;;;;;;5012842;28;20056;-95
2022/05/17 03:00:57;;;;;;;11.10;2.65;;;10.60;99.90;;;;;;5010803;28;20049;-95
2022/05/17 03:03:23;;;;;;;10.20;3.67;;;10.60;99.90;;;;;;5004926;28;20040;-95
2022/05/17 03:05:49;;;;;;;10.35;3.13;;;10.60;99.90;;;;;;5007710;28;20018;-95
2022/05/17 03:08:14;;;;;;;11.65;2.65;;;10.50;99.90;;;;;;5014400;28;20045;-95
2022/05/17 03:10:40;;;;;;;10.05;2.50;;;10.50;99.90;;;;;;5012225;28;20018;-95
2022/05/17 03:13:12;;;;;;;9.55;2.75;;;10.50;99.90;;;;;;5010014;28;20041;-93
2022/05/17 03:15:38;;;;;;;10.35;2.60;;;10.50;99.90;;;;;;5014108;28;20060;-94
2022/05/17 03:18:04;;;;;;;10.57;2.55;;;10.40;99.90;;;;;;5017450;28;20037;-93
2022/05/17 03:20:31;;;;;;;6.60;2.60;;;10.40;99.90;;;;;;5019196;28;20077;-89
2022/05/17 03:22:56;;;;;;;8.55;2.70;;;10.30;99.90;;;;;;5019588;28;20506;-94
2022/05/17 03:25:23;;;;;;;6.32;3.00;;;10.30;99.90;;;;;;5019238;28;20025;-95
2022/05/17 03:27:49;;;;;;;8.45;2.15;;;10.20;99.90;;;;;;5018894;28;20033;-95
2022/05/17 03:30:15;;;;;;;8.40;2.50;;;10.20;99.90;;;;;;5016665;28;20041;-94
2022/05/17 03:32:41;;;;;;;5.22;2.30;;;10.10;99.90;;;;;;5018837;28;20065;-93
2022/05/17 03:35:08;;;;;;;8.30;2.10;;;10.00;99.90;;;;;;5016029;28;20038;-95
2022/05/17 03:37:33;;;;;;;8.77;2.50;;;10.00;99.90;;;;;;5017528;28;20030;-94
2022/05/17 03:39:59;;;;;;;8.00;2.40;;;10.00;99.90;;;;;;5018321;28;20028;-94
2022/05/17 03:42:25;;;;;;;4.03;2.50;;;10.00;99.90;;;;;;5036409;28;20038;-94
2022/05/17 03:44:50;;;;;;;6.15;2.50;;;9.90;99.90;;;;;;5020317;28;20032;-88
2022/05/17 03:47:17;;;;;;;8.25;3.70;;;9.90;99.90;;;;;;5020577;28;20018;-90
2022/05/17 03:49:43;;;;;;;10.10;2.30;;;9.90;99.90;;;;;;5020876;28;20094;-92
2022/05/17 03:52:09;;;;;;;7.05;2.80;;;9.80;99.90;;;;;;5020504;28;20006;-91
2022/05/17 03:54:38;;;;;;;9.77;2.95;;;9.80;99.90;;;;;;5020695;28;20024;-90
2022/05/17 03:57:04;;;;;;;12.10;3.90;;;9.80;99.90;;;;;;5020172;28;20086;-92
2022/05/17 03:59:30;;;;;;;7.60;3.08;;;9.70;99.90;;;;;;5017919;28;20056;-94
2022/05/17 04:01:57;;;;;;;10.90;3.13;;;9.80;99.90;;;;;;5018897;28;20006;-95
2022/05/17 04:04:22;;;;;;;12.13;3.17;;;9.80;99.90;;;;;;5020100;28;20097;-91
2022/05/17 04:06:48;;;;;;;6.43;3.10;;;9.70;99.90;;;;;;5019843;28;20030;-89
2022/05/17 04:09:14;;;;;;;7.10;3.70;;;9.70;99.90;;;;;;5020201;28;20036;-91
2022/05/17 04:11:39;;;;;;;9.05;3.10;;;9.70;99.90;;;;;;5020075;28;20057;-91
2022/05/17 04:14:06;;;;;;;6.90;3.80;;;9.70;99.90;;;;;;5020377;28;20010;-89
2022/05/17 04:16:36;;;;;;;10.40;3.65;;;9.70;99.90;;;;;;5012425;28;20169;-96
2022/05/17 04:19:02;;;;;;;10.00;2.90;;;9.60;99.90;;;;;;5009927;28;20105;-96
2022/05/17 04:21:30;;;;;;;7.55;3.45;;;9.70;99.90;;;;;;5009396;28;20283;-96
2022/05/17 04:23:56;;;;;;;7.60;3.22;;;9.80;99.90;;;;;;5009819;28;20025;-95
2022/05/17 04:26:23;;;;;;;6.72;3.28;;;9.80;99.90;;;;;;5003667;28;20029;-96
2022/05/17 04:28:50;;;;;;;6.65;2.92;;;9.90;99.90;;;;;;5002201;28;20084;-95
2022/05/17 04:31:16;;;;;;;8.98;2.90;;;9.90;99.90;;;;;;5004193;28;20193;-96
2022/05/17 04:33:42;;;;;;;8.50;3.22;;;10.00;99.90;;;;;;5011563;28;20184;-94
2022/05/17 04:36:08;;;;;;;4.82;3.20;;;10.10;99.90;;;;;;5012907;28;20034;-96
2022/05/17 04:38:34;;;;;;;5.63;3.22;;;10.10;99.90;;;;;;5012241;28;20033;-93
2022/05/17 04:41:00;;;;;;;6.60;3.15;;;10.00;99.90;;;;;;5009313;28;20029;-93
2022/05/17 04:43:26;;;;;;;7.95;2.92;;;10.10;99.90;;;;;;5006524;28;20073;-95
2022/05/17 04:45:52;;;;;;;6.15;3.30;;;10.10;99.90;;;;;;5009580;28;20034;-94
2022/05/17 04:48:18;;;;;;;4.97;3.28;;;10.00;99.90;;;;;;5007897;28;20030;-94
2022/05/17 04:50:43;;;;;;;5.60;2.50;;;10.00;99.90;;;;;;5010061;28;20637;-95
2022/05/17 04:53:09;;;;;;;6.32;3.00;;;10.10;99.90;;;;;;5016656;28;20360;-91
2022/05/17 04:55:35;;;;;;;10.82;3.67;;;10.20;99.90;;;;;;5023129;28;20061;-91
2022/05/17 04:58:01;;;;;;;19.40;5.70;;;10.30;99.90;;;;;;5016356;28;20030;-96
2022/05/17 05:00:28;;;;;;;8.82;3.15;;;10.40;99.90;;;;;;5013507;28;20037;-92
2022/05/17 05:02:56;;;;;;;8.75;3.00;;;10.40;99.90;;;;;;5017132;28;20050;-92
2022/05/17 05:05:23;;;;;;;7.18;3.35;;;10.40;99.90;;;;;;5016100;28;20010;-94
2022/05/17 05:07:49;;;;;;;12.23;3.55;;;10.40;99.90;;;;;;5016509;28;20068;-94
2022/05/17 05:10:14;;;;;;;5.40;3.25;;;10.30;99.90;;;;;;5019988;28;20030;-92
2022/05/17 05:12:41;;;;;;;5.40;2.88;;;10.30;99.90;;;;;;5020589;28;20068;-94
2022/05/17 05:15:08;;;;;;;8.85;3.28;;;10.30;99.90;;;;;;5014987;28;20137;-94
2022/05/17 05:17:35;;;;;;;7.07;3.05;;;10.40;99.90;;;;;;5013807;28;20018;-96
2022/05/17 05:20:02;;;;;;;9.30;4.10;;;10.30;99.90;;;;;;5014407;28;20026;-95
2022/05/17 05:22:31;;;;;;;10.98;4.07;;;10.40;99.90;;;;;;5015318;28;20485;-95
2022/05/17 05:24:59;;;;;;;13.80;5.57;;;10.40;99.90;;;;;;5028210;28;20110;-96
2022/05/17 05:27:25;;;;;;;7.20;3.63;;;10.50;99.90;;;;;;5018136;28;20010;-94
2022/05/17 05:29:50;;;;;;;11.85;4.75;;;10.60;99.90;;;;;;5022906;28;20057;-92
2022/05/17 05:32:16;;;;;;;16.30;5.57;;;10.70;99.90;;;;;;5019994;28;20045;-96
2022/05/17 05:34:42;;;;;;;18.83;5.45;;;10.80;99.90;;;;;;5014955;28;20056;-93
2022/05/17 05:37:08;;;;;;;19.48;6.30;;;10.90;99.90;;;;;;5017117;28;20033;-94
2022/05/17 05:39:38;;;;;;;14.40;4.22;;;11.00;99.90;;;;;;5017798;28;20041;-95
2022/05/17 05:42:05;;;;;;;22.02;6.50;;;11.10;99.90;;;;;;5012449;28;20132;-93
2022/05/17 05:44:33;;;;;;;29.90;8.30;;;11.20;99.90;;;;;;5017917;28;20030;-93
2022/05/17 05:46:59;;;;;;;11.43;4.07;;;11.20;99.90;;;;;;5018959;28;20114;-89
2022/05/17 05:49:24;;;;;;;20.05;6.90;;;11.40;99.90;;;;;;5021499;28;20038;-93
2022/05/17 05:51:50;;;;;;;17.83;5.05;;;11.50;99.90;;;;;;5015024;28;20022;-93
2022/05/17 05:54:17;;;;;;;14.05;4.90;;;11.50;99.90;;;;;;5016336;28;20045;-94
2022/05/17 05:56:42;;;;;;;27.58;6.70;;;11.70;99.90;;;;;;5020386;28;20041;-93
2022/05/17 05:59:09;;;;;;;28.42;9.00;;;11.70;99.90;;;;;;5016455;28;20030;-93
2022/05/17 06:01:35;;;;;;;21.63;5.55;;;11.80;99.90;;;;;;5018350;28;20014;-92
2022/05/17 06:04:01;;;;;;;29.88;6.72;;;11.90;99.90;;;;;;5018968;28;20038;-94
2022/05/17 06:06:27;;;;;;;29.17;7.63;;;12.00;99.90;;;;;;5019856;28;20113;-91
2022/05/17 06:08:55;;;;;;;33.72;7.22;;;12.10;99.90;;;;;;5019770;28;20037;-92
2022/05/17 06:11:21;;;;;;;32.33;7.28;;;12.20;99.90;;;;;;5037430;28;20029;-91
2022/05/17 06:13:48;;;;;;;33.47;7.20;;;12.30;99.90;;;;;;5020910;28;20060;-92
2022/05/17 06:16:17;;;;;;;29.70;7.25;;;12.40;99.90;;;;;;5036730;28;20025;-92
2022/05/17 06:18:43;;;;;;;37.90;7.15;;;12.40;99.90;;;;;;5018401;28;20030;-92
2022/05/17 06:21:09;;;;;;;31.42;7.35;;;12.50;99.90;;;;;;5020376;28;20101;-94
2022/05/17 06:23:35;;;;;;;23.27;5.18;;;12.60;99.90;;;;;;5021961;28;20024;-92
2022/05/17 06:26:01;;;;;;;24.48;5.97;;;12.70;99.90;;;;;;5020584;28;20025;-91
2022/05/17 06:28:27;;;;;;;27.63;6.75;;;12.70;99.90;;;;;;5020818;28;20030;-90
2022/05/17 06:30:53;;;;;;;28.75;5.93;;;12.80;99.90;;;;;;5037359;28;20311;-94
2022/05/17 06:33:19;;;;;;;27.98;6.22;;;12.80;99.90;;;;;;5015980;28;20083;-93
2022/05/17 06:35:48;;;;;;;18.48;4.35;;;12.80;99.90;;;;;;5018239;28;20052;-92
2022/05/17 06:38:15;;;;;;;20.77;4.40;;;12.70;99.90;;;;;;5018984;28;20025;-94
2022/05/17 06:40:41;;;;;;;38.17;6.05;;;12.70;99.90;;;;;;5017431;28;20022;-90
2022/05/17 06:43:07;;;;;;;21.27;4.88;;;12.70;99.90;;;;;;5021250;28;20068;-93
2022/05/17 06:45:33;;;;;;;24.92;4.70;;;12.70;99.90;;;;;;5021099;28;20092;-90
2022/05/17 06:48:00;;;;;;;21.58;4.57;;;12.80;99.90;;;;;;5021015;28;20040;-91
2022/05/17 06:50:27;;;;;;;29.50;6.03;;;12.80;99.90;;;;;;5021531;28;20021;-90
2022/05/17 06:52:53;;;;;;;20.27;5.00;;;12.80;99.90;;;;;;5021352;28;20034;-88
2022/05/17 06:55:19;;;;;;;23.88;6.00;;;12.90;99.90;;;;;;5020853;28;20017;-91
2022/05/17 06:57:45;;;;;;;29.55;4.88;;;12.90;99.90;;;;;;5020725;28;20017;-88
2022/05/17 07:00:13;;;;;;;22.13;4.63;;;13.00;99.90;;;;;;5021183;28;20014;-88
2022/05/17 07:02:39;;;;;;;24.45;4.78;;;13.00;99.90;;;;;;5022005;28;20021;-90
2022/05/17 07:05:06;;;;;;;26.58;5.15;;;13.10;99.90;;;;;;5021904;28;20010;-90
2022/05/17 07:07:32;;;;;;;21.88;5.50;;;13.20;99.90;;;;;;5021176;28;21130;-91
2022/05/17 07:15:27;;;;;;;30.73;5.25;;;13.30;99.90;;;;;;5030173;28;20037;-89
2022/05/17 07:17:52;;;;;;;21.00;4.70;;;13.30;99.90;;;;;;5019367;28;20038;-91
2022/05/17 07:20:18;;;;;;;18.73;5.22;;;13.40;99.90;;;;;;5021972;28;20061;-89
2022/05/17 07:22:44;;;;;;;21.50;5.30;;;13.50;99.90;;;;;;5021544;28;20156;-90
2022/05/17 07:25:10;;;;;;;24.05;4.32;;;13.60;99.90;;;;;;5017973;28;20033;-90
2022/05/17 07:27:36;;;;;;;24.33;4.97;;;13.80;99.90;;;;;;5020685;28;20050;-88
2022/05/17 07:30:04;;;;;;;16.98;4.32;;;13.90;99.90;;;;;;5016797;28;20026;-93
2022/05/17 07:32:30;;;;;;;22.80;4.30;;;14.00;99.90;;;;;;5008326;28;20486;-94
2022/05/17 07:34:55;;;;;;;32.03;4.72;;;14.10;99.90;;;;;;5005181;28;20034;-95
2022/05/17 07:37:21;;;;;;;16.77;3.28;;;14.20;99.90;;;;;;5008013;28;20034;-94
2022/05/17 07:39:47;;;;;;;19.20;4.28;;;14.30;99.90;;;;;;5007105;28;20022;-94
2022/05/17 07:42:13;;;;;;;20.02;3.50;;;14.40;99.90;;;;;;5029766;28;20034;-91
2022/05/17 07:44:42;;;;;;;25.83;3.60;;;14.50;99.90;;;;;;5011248;28;20129;-95
2022/05/17 07:47:08;;;;;;;19.83;3.05;;;14.60;99.90;;;;;;5008494;28;20109;-95
2022/05/17 07:49:33;;;;;;;20.70;4.13;;;14.70;99.90;;;;;;5006127;28;20041;-93
2022/05/17 07:52:01;;;;;;;23.45;3.97;;;14.90;99.90;;;;;;5007660;28;20113;-95
2022/05/17 07:54:37;;;;;;;24.10;4.57;;;14.90;99.90;;;;;;5015599;28;20132;-96
2022/05/17 07:57:04;;;;;;;23.52;3.47;;;15.00;99.90;;;;;;5000002;28;20569;-93
2022/05/17 07:59:30;;;;;;;21.77;3.92;;;15.10;99.90;;;;;;5002460;28;20093;-94
2022/05/17 08:01:56;;;;;;;15.27;4.03;;;15.20;99.90;;;;;;4999331;28;20056;-93
2022/05/17 08:04:25;;;;;;;20.05;4.05;;;15.30;99.90;;;;;;4995281;28;20064;-92
2022/05/17 08:06:51;;;;;;;15.40;3.50;;;15.50;99.90;;;;;;4997575;28;20029;-93
2022/05/17 08:09:17;;;;;;;21.08;5.03;;;15.60;99.90;;;;;;4997976;28;20030;-92
2022/05/17 08:11:43;;;;;;;21.10;4.10;;;15.60;99.90;;;;;;4998591;28;20026;-92
2022/05/17 08:14:09;;;;;;;17.33;3.90;;;15.80;99.90;;;;;;4997744;28;20034;-92
2022/05/17 08:16:35;;;;;;;20.30;4.13;;;15.80;99.90;;;;;;4999060;28;20080;-93
2022/05/17 08:19:00;;;;;;;19.65;3.55;;;15.80;99.90;;;;;;4998210;28;20061;-95
2022/05/17 08:21:27;;;;;;;14.82;3.00;;;15.90;99.90;;;;;;4998626;28;20050;-93
2022/05/17 08:23:53;;;;;;;17.02;3.90;;;16.00;99.90;;;;;;4999539;28;20026;-93
2022/05/17 08:29:02;;;;;;;18.10;3.78;;;16.20;99.90;;;;;;5028618;28;20044;-93
2022/05/17 08:31:28;;;;;;;22.23;3.92;;;16.20;99.90;;;;;;5031687;28;20014;-93
2022/05/17 08:33:54;;;;;;;17.80;3.35;;;16.40;99.90;;;;;;5027823;28;20146;-93
2022/05/17 08:36:20;;;;;;;11.57;2.60;;;16.50;99.90;;;;;;4996416;28;20038;-94
2022/05/17 08:38:48;;;;;;;23.08;3.88;;;16.50;99.90;;;;;;4997657;28;20064;-94
2022/05/17 08:41:39;;;;;;;19.08;3.53;;;16.60;99.90;;;;;;4997486;28;20054;-91
2022/05/17 08:44:09;;;;;;;21.67;4.38;;;16.60;99.90;;;;;;4992450;28;20058;-94
2022/05/17 08:47:12;;;;;;;20.85;3.60;;;16.70;99.90;;;;;;4998506;28;20018;-95
2022/05/17 08:49:54;;;;;;;19.55;2.95;;;16.90;99.90;;;;;;5001106;28;20065;-92
2022/05/17 08:52:22;;;;;;;17.35;3.13;;;17.10;99.90;;;;;;5002755;28;20125;-94
2022/05/17 08:54:51;;;;;;;20.98;3.30;;;17.20;99.90;;;;;;4998174;28;20045;-93
2022/05/17 08:57:40;;;;;;;16.58;4.25;;;17.30;99.90;;;;;;4996194;28;20062;-94
2022/05/17 09:00:16;;;;;;;21.15;3.13;;;17.50;99.90;;;;;;4995890;28;20033;-94
2022/05/17 09:02:50;;;;;;;14.10;2.63;;;17.50;99.90;;;;;;4976921;28;20023;-95
2022/05/17 09:05:36;;;;;;;17.10;3.13;;;17.60;99.90;;;;;;4989621;28;20054;-90
2022/05/17 09:08:08;;;;;;;11.93;2.63;;;17.50;99.90;;;;;;4997546;28;20045;-91
2022/05/17 09:10:52;;;;;;;16.10;2.95;;;17.40;99.90;;;;;;4999645;28;20032;-95
2022/05/17 09:13:29;;;;;;;21.50;3.13;;;17.40;99.90;;;;;;4998771;28;20506;-94
2022/05/17 09:15:57;;;;;;;18.67;4.28;;;17.50;99.90;;;;;;5014796;28;20030;-94
2022/05/17 09:18:23;;;;;;;13.35;3.10;;;17.60;99.90;;;;;;4997105;28;20022;-92
2022/05/17 09:20:49;;;;;;;17.27;3.40;;;17.70;99.90;;;;;;4997661;28;20033;-93
2022/05/17 09:23:15;;;;;;;20.23;3.35;;;17.80;99.90;;;;;;5001360;28;20026;-93
2022/05/17 09:25:56;;;;;;;21.60;3.22;;;17.80;99.90;;;;;;5002115;28;20471;-92
2022/05/17 09:28:23;;;;;;;;;;;17.80;99.90;;;;;;5000958;28;20129;-92
2022/05/17 09:31:09;;;;;;;18.95;3.63;;;17.70;99.90;;;;;;5001259;28;19905;-92
2022/05/17 09:33:39;;;;;;;15.90;3.58;;;17.80;99.90;;;;;;5000891;28;20021;-93
2022/05/17 09:36:05;;;;;;;18.75;4.32;;;17.90;99.90;;;;;;5003407;28;20037;-92
2022/05/17 09:38:34;;;;;;;17.25;2.80;;;18.00;99.90;;;;;;5003709;28;20025;-92
2022/05/17 09:41:00;;;;;;;12.20;2.67;;;18.10;99.90;;;;;;5006214;28;20037;-92
2022/05/17 09:43:45;;;;;;;11.75;2.40;;;18.30;99.90;;;;;;5005634;28;20041;-92
2022/05/17 09:46:16;;;;;;;15.35;3.13;;;18.30;99.90;;;;;;5017343;28;20029;-91
2022/05/17 09:54:47;;;;;;;13.32;2.92;;;18.70;99.90;;;;;;5017801;28;20164;-93
2022/05/17 09:57:23;;;;;;;18.58;3.28;;;18.80;99.90;;;;;;5001547;28;20487;-92
2022/05/17 09:59:55;;;;;;;14.60;2.97;;;18.90;99.90;;;;;;4997983;28;20364;-94
2022/05/17 10:02:23;;;;;;;15.43;3.17;;;19.00;99.90;;;;;;5000519;28;20114;-92
2022/05/17 10:04:49;;;;;;;18.17;3.22;;;19.20;99.90;;;;;;4999947;28;20053;-95
2022/05/17 10:07:20;;;;;;;21.92;4.13;;;19.30;99.90;;;;;;5000103;28;20025;-91
2022/05/17 10:09:45;;;;;;;16.55;3.53;;;19.40;99.90;;;;;;4997318;28;20038;-92
2022/05/17 10:12:34;;;;;;;11.73;2.83;;;19.50;99.90;;;;;;5000645;28;20407;-93
2022/05/17 10:15:10;;;;;;;14.45;2.92;;;19.70;99.90;;;;;;5010521;28;20022;-90
2022/05/17 10:17:51;;;;;;;10.50;2.20;;;19.80;99.50;;;;;;5008997;28;20021;-93
2022/05/17 10:20:21;;;;;;;15.40;3.20;;;19.90;98.60;;;;;;5006644;28;20047;-91
2022/05/17 10:23:09;;;;;;;15.70;2.70;;;19.90;97.60;;;;;;5022082;28;20033;-93
2022/05/17 10:25:47;;;;;;;20.77;3.40;;;20.00;96.30;;;;;;5018579;28;20029;-91
2022/05/17 10:28:38;;;;;;;18.80;3.55;;;19.90;96.00;;;;;;5001117;28;20036;-91
2022/05/17 10:31:31;;;;;;;21.58;4.50;;;19.90;96.00;;;;;;5017888;28;20352;-90
2022/05/17 10:34:22;;;;;;;19.67;3.10;;;19.90;95.90;;;;;;4999372;28;20026;-91
2022/05/17 10:36:58;;;;;;;16.77;3.45;;;19.90;96.20;;;;;;4998967;28;20025;-92
2022/05/17 10:39:38;;;;;;;15.15;4.03;;;19.90;96.20;;;;;;4999396;28;20113;-91
2022/05/17 10:42:05;;;;;;;22.23;3.83;;;19.90;95.90;;;;;;4998276;28;20033;-91
2022/05/17 10:44:47;;;;;;;17.35;3.83;;;20.00;96.40;;;;;;4997994;28;20033;-92
2022/05/17 10:47:52;;;;;;;21.95;3.45;;;20.10;96.50;;;;;;5016165;28;20026;-94
2022/05/17 10:50:30;;;;;;;14.80;3.03;;;20.30;96.30;;;;;;4975066;28;20613;-92
2022/05/17 10:53:29;;;;;;;16.30;3.60;;;20.30;95.30;;;;;;5015158;28;20032;-93
2022/05/17 10:56:10;;;;;;;9.80;2.65;;;20.30;94.40;;;;;;4997238;28;20104;-91
2022/05/17 10:59:00;;;;;;;14.35;2.65;;;20.40;94.40;;;;;;4998142;28;20116;-93
2022/05/17 11:01:29;;;;;;;;;;;20.60;93.00;;;;;;4997834;28;20049;-90
2022/05/17 11:04:32;;;;;;;12.52;3.08;;;20.60;92.90;;;;;;5015135;28;19916;-91
2022/05/17 11:07:26;;;;;;;11.65;2.70;;;20.60;92.00;;;;;;4997683;28;20022;-92
2022/05/17 11:10:16;;;;;;;10.52;2.95;;;20.80;92.00;;;;;;4997283;28;20044;-92
2022/05/17 11:12:49;;;;;;;13.70;3.33;;;21.00;91.90;;;;;;4997063;28;20113;-92
2022/05/17 11:15:19;;;;;;;13.48;3.35;;;21.00;91.50;;;;;;5014307;28;20033;-92
2022/05/17 11:17:50;;;;;;;13.95;2.80;;;21.00;91.50;;;;;;5010989;28;20045;-93
2022/05/17 11:20:38;;;;;;;14.60;3.20;;;21.00;91.30;;;;;;4996830;28;20032;-92
2022/05/17 11:23:07;;;;;;;13.75;2.75;;;21.10;91.20;;;;;;4996840;28;20033;-94
2022/05/17 11:26:05;;;;;;;18.15;3.65;;;21.30;91.20;;;;;;4998083;28;20013;-92
2022/05/17 11:28:53;;;;;;;11.80;2.75;;;21.40;88.60;;;;;;5000536;28;20041;-93
2022/05/17 11:31:29;;;;;;;11.82;3.17;;;21.60;89.10;;;;;;4967815;28;20271;-92
2022/05/17 11:34:31;;;;;;;12.30;3.10;;;21.80;88.00;;;;;;4954004;29;20048;-92
2022/05/17 11:37:01;;;;;;;11.70;2.90;;;22.00;86.00;;;;;;4941502;29;20035;-94
2022/05/17 11:39:35;;;;;;;9.90;3.28;;;22.10;85.90;;;;;;4948639;29;20035;-92
2022/05/17 11:42:10;;;;;;;9.63;3.47;;;22.20;84.70;;;;;;4955507;29;20094;-91
2022/05/17 11:44:44;;;;;;;11.75;2.70;;;22.40;84.50;;;;;;4950449;29;20034;-93
2022/05/17 11:47:31;;;;;;;17.15;3.30;;;22.60;84.30;;;;;;4955822;29;20028;-92
2022/05/17 11:50:15;;;;;;;17.23;2.70;;;22.50;83.00;;;;;;4953913;29;20035;-90
2022/05/17 11:52:43;;;;;;;14.65;3.38;;;22.40;81.90;;;;;;4955210;29;20039;-92
2022/05/17 11:55:11;;;;;;;15.73;2.75;;;22.30;81.60;;;;;;4938285;29;20042;-93
2022/05/17 11:57:38;;;;;;;12.23;2.60;;;22.20;82.20;;;;;;4936424;29;20520;-93
2022/05/17 12:00:29;;;;;;;15.13;2.75;;;22.10;80.20;;;;;;4937856;29;20519;-93
2022/05/17 12:03:00;;;;;;;11.75;2.67;;;22.00;80.00;;;;;;4937807;29;20042;-92
2022/05/17 12:05:38;;;;;;;12.20;2.50;;;22.20;80.40;;;;;;4953368;29;20076;-93
2022/05/17 12:08:43;;;;;;;8.82;1.98;;;22.30;80.30;;;;;;4956964;28;20081;-91
2022/05/17 12:11:12;;;;;;;14.02;3.00;;;22.60;78.80;;;;;;4994530;28;20600;-92
2022/05/17 12:13:46;;;;;;;10.65;2.47;;;22.50;78.30;;;;;;4994322;28;20557;-92
2022/05/17 12:16:19;;;;;;;10.75;2.53;;;22.50;78.10;;;;;;5006306;28;20030;-94
2022/05/17 12:18:53;;;;;;;11.73;2.90;;;22.30;77.60;;;;;;4975866;28;20030;-91
2022/05/17 12:21:40;;;;;;;22.67;3.58;;;22.20;77.80;;;;;;4976722;28;20030;-93
2022/05/17 12:24:11;;;;;;;11.02;2.17;;;22.20;78.00;;;;;;4976745;28;20026;-93
2022/05/17 12:27:18;;;;;;;9.80;2.45;;;22.30;78.70;;;;;;4976799;28;20431;-93
2022/05/17 12:32:50;;;;;;;16.10;3.30;;;22.50;77.90;;;;;;4929709;29;20034;-94
2022/05/17 12:35:27;;;;;;;9.68;2.67;;;22.60;77.60;;;;;;4917350;29;20040;-93
2022/05/17 12:37:52;;;;;;;12.23;2.83;;;22.60;76.70;;;;;;4917946;29;20038;-92
2022/05/17 12:43:29;;;;;;;11.93;2.80;;;22.80;76.80;;;;;;4934510;29;20139;-91
2022/05/17 12:46:08;;;;;;;12.07;2.75;;;22.80;76.10;;;;;;4918233;29;20505;-93
2022/05/17 12:48:37;;;;;;;11.90;2.90;;;22.80;76.10;;;;;;4950297;29;20569;-93
2022/05/17 12:51:06;;;;;;;10.85;2.60;;;22.80;76.10;;;;;;4918479;29;20482;-93
2022/05/17 12:53:43;;;;;;;11.70;3.15;;;22.70;76.20;;;;;;4933941;29;20081;-91
2022/05/17 12:56:28;;;;;;;10.02;2.92;;;22.70;76.60;;;;;;4936281;29;20677;-91
2022/05/17 12:58:57;;;;;;;10.00;2.72;;;22.90;77.20;;;;;;4921912;29;20032;-92
2022/05/17 13:01:24;;;;;;;11.82;2.30;;;23.10;77.10;;;;;;4922377;29;20039;-92
2022/05/17 13:03:54;;;;;;;12.55;2.60;;;23.40;77.00;;;;;;4922100;29;20034;-91
2022/05/17 13:06:19;;;;;;;14.38;3.30;;;23.50;76.30;;;;;;4981065;28;20483;-92
2022/05/17 13:08:47;;;;;;;15.73;2.75;;;23.40;75.60;;;;;;4980758;28;20061;-91
2022/05/17 13:11:23;;;;;;;15.15;3.20;;;23.30;75.50;;;;;;5017946;28;20058;-91
2022/05/17 13:13:50;;;;;;;18.05;3.47;;;23.10;75.50;;;;;;5023010;28;20038;-92
2022/05/17 13:16:32;;;;;;;7.43;2.35;;;23.20;75.70;;;;;;5005918;28;20041;-91